sensor_id;sensor_type;location;lat;lon;timestamp;P1;durP1;ratioP1;P2;durP2;ratioP2
15876;SDS011;8037;51.666;7.834;2023-04-08T00:01:15;6.13;;;5.57;;
15876;SDS011;8037;51.666;7.834;2023-04-08T00:03:41;6.90;;;5.50;;
15876;SDS011;8037;51.666;7.834;2023-04-08T00:06:07;5.40;;;4.73;;
15876;SDS011;8037;51.666;7.834;2023-04-08T00:08:33;8.67;;;5.00;;
15876;SDS011;8037;51.666;7.834;2023-04-08T00:10:59;12.13;;;5.50;;
15876;SDS011;8037;51.666;7.834;2023-04-08T00:13:25;6.87;;;5.73;;
15876;SDS011;8037;51.666;7.834;2023-04-08T00:15:51;4.87;;;4.47;;
15876;SDS011;8037;51.666;7.834;2023-04-08T00:18:17;4.27;;;3.83;;
15876;SDS011;8037;51.666;7.834;2023-04-08T00:20:43;5.53;;;5.00;;
15876;SDS011;8037;51.666;7.834;2023-04-08T00:23:09;4.87;;;4.30;;
15876;SDS011;8037;51.666;7.834;2023-04-08T00:25:35;8.23;;;5.23;;
15876;SDS011;8037;51.666;7.834;2023-04-08T00:28:01;4.60;;;4.20;;
15876;SDS011;8037;51.666;7.834;2023-04-08T00:30:27;4.93;;;4.53;;
15876;SDS011;8037;51.666;7.834;2023-04-08T00:32:53;6.10;;;4.60;;
15876;SDS011;8037;51.666;7.834;2023-04-08T00:35:19;6.70;;;4.40;;
15876;SDS011;8037;51.666;7.834;2023-04-08T00:37:45;10.93;;;4.37;;
15876;SDS011;8037;51.666;7.834;2023-04-08T00:40:11;6.70;;;4.40;;
15876;SDS011;8037;51.666;7.834;2023-04-08T00:42:37;5.53;;;4.37;;
15876;SDS011;8037;51.666;7.834;2023-04-08T00:45:04;5.43;;;4.53;;
15876;SDS011;8037;51.666;7.834;2023-04-08T00:47:30;6.00;;;5.27;;
15876;SDS011;8037;51.666;7.834;2023-04-08T00:49:56;9.77;;;5.87;;
15876;SDS011;8037;51.666;7.834;2023-04-08T00:52:22;10.30;;;6.60;;
15876;SDS011;8037;51.666;7.834;2023-04-08T00:54:48;8.90;;;6.27;;
15876;SDS011;8037;51.666;7.834;2023-04-08T00:57:13;21.77;;;8.60;;
15876;SDS011;8037;51.666;7.834;2023-04-08T00:59:40;8.03;;;6.10;;
15876;SDS011;8037;51.666;7.834;2023-04-08T01:07:17;13.20;;;7.87;;
15876;SDS011;8037;51.666;7.834;2023-04-08T01:09:47;11.10;;;6.67;;
15876;SDS011;8037;51.666;7.834;2023-04-08T01:12:17;9.93;;;6.80;;
15876;SDS011;8037;51.666;7.834;2023-04-08T01:14:51;12.30;;;7.20;;
15876;SDS011;8037;51.666;7.834;2023-04-08T01:17:19;8.37;;;4.93;;
15876;SDS011;8037;51.666;7.834;2023-04-08T01:19:46;9.87;;;5.50;;
15876;SDS011;8037;51.666;7.834;2023-04-08T01:22:18;4.57;;;4.17;;
15876;SDS011;8037;51.666;7.834;2023-04-08T01:24:44;5.07;;;4.07;;
15876;SDS011;8037;51.666;7.834;2023-04-08T01:27:13;4.67;;;3.87;;
15876;SDS011;8037;51.666;7.834;2023-04-08T01:29:39;6.10;;;3.80;;
15876;SDS011;8037;51.666;7.834;2023-04-08T01:32:07;3.83;;;3.53;;
15876;SDS011;8037;51.666;7.834;2023-04-08T01:34:33;6.63;;;5.13;;
15876;SDS011;8037;51.666;7.834;2023-04-08T01:37:00;6.17;;;4.33;;
15876;SDS011;8037;51.666;7.834;2023-04-08T01:39:26;4.23;;;3.20;;
15876;SDS011;8037;51.666;7.834;2023-04-08T01:41:53;6.87;;;4.40;;
15876;SDS011;8037;51.666;7.834;2023-04-08T01:44:19;4.60;;;3.30;;
15876;SDS011;8037;51.666;7.834;2023-04-08T01:46:46;5.67;;;3.27;;
15876;SDS011;8037;51.666;7.834;2023-04-08T01:49:13;4.23;;;3.83;;
15876;SDS011;8037;51.666;7.834;2023-04-08T01:51:40;5.13;;;3.40;;
15876;SDS011;8037;51.666;7.834;2023-04-08T01:54:06;3.90;;;3.27;;
15876;SDS011;8037;51.666;7.834;2023-04-08T01:56:33;2.73;;;2.53;;
15876;SDS011;8037;51.666;7.834;2023-04-08T01:59:01;2.47;;;2.30;;
15876;SDS011;8037;51.666;7.834;2023-04-08T02:01:30;2.67;;;2.47;;
15876;SDS011;8037;51.666;7.834;2023-04-08T02:03:57;2.33;;;2.17;;
15876;SDS011;8037;51.666;7.834;2023-04-08T02:06:24;2.60;;;2.40;;
15876;SDS011;8037;51.666;7.834;2023-04-08T02:08:53;3.00;;;2.67;;
15876;SDS011;8037;51.666;7.834;2023-04-08T02:11:19;2.70;;;2.50;;
15876;SDS011;8037;51.666;7.834;2023-04-08T02:13:45;3.23;;;2.93;;
15876;SDS011;8037;51.666;7.834;2023-04-08T02:16:15;1.87;;;1.77;;
15876;SDS011;8037;51.666;7.834;2023-04-08T02:18:44;2.13;;;2.03;;
15876;SDS011;8037;51.666;7.834;2023-04-08T02:21:12;3.00;;;2.80;;
15876;SDS011;8037;51.666;7.834;2023-04-08T02:23:39;3.13;;;2.67;;
15876;SDS011;8037;51.666;7.834;2023-04-08T02:26:12;1.77;;;1.67;;
15876;SDS011;8037;51.666;7.834;2023-04-08T02:28:39;2.53;;;2.40;;
15876;SDS011;8037;51.666;7.834;2023-04-08T02:31:08;2.33;;;2.20;;
15876;SDS011;8037;51.666;7.834;2023-04-08T02:33:34;2.53;;;2.33;;
15876;SDS011;8037;51.666;7.834;2023-04-08T02:36:01;2.90;;;2.70;;
15876;SDS011;8037;51.666;7.834;2023-04-08T02:38:27;2.07;;;1.97;;
15876;SDS011;8037;51.666;7.834;2023-04-08T02:40:54;2.13;;;2.03;;
15876;SDS011;8037;51.666;7.834;2023-04-08T02:43:20;3.90;;;2.30;;
15876;SDS011;8037;51.666;7.834;2023-04-08T02:45:50;3.97;;;3.53;;
15876;SDS011;8037;51.666;7.834;2023-04-08T02:48:17;2.43;;;2.23;;
15876;SDS011;8037;51.666;7.834;2023-04-08T02:50:42;2.03;;;1.93;;
15876;SDS011;8037;51.666;7.834;2023-04-08T02:53:09;3.00;;;2.07;;
15876;SDS011;8037;51.666;7.834;2023-04-08T02:55:35;3.37;;;3.03;;
15876;SDS011;8037;51.666;7.834;2023-04-08T02:58:01;3.90;;;3.10;;
15876;SDS011;8037;51.666;7.834;2023-04-08T03:00:27;3.40;;;3.10;;
15876;SDS011;8037;51.666;7.834;2023-04-08T03:02:53;4.03;;;3.63;;
15876;SDS011;8037;51.666;7.834;2023-04-08T03:05:19;3.20;;;2.90;;
15876;SDS011;8037;51.666;7.834;2023-04-08T03:07:45;4.77;;;3.40;;
15876;SDS011;8037;51.666;7.834;2023-04-08T03:10:11;3.20;;;3.00;;
15876;SDS011;8037;51.666;7.834;2023-04-08T03:12:37;4.30;;;3.10;;
15876;SDS011;8037;51.666;7.834;2023-04-08T03:15:03;2.80;;;2.60;;
15876;SDS011;8037;51.666;7.834;2023-04-08T03:17:30;3.17;;;2.30;;
15876;SDS011;8037;51.666;7.834;2023-04-08T03:19:58;3.43;;;2.90;;
15876;SDS011;8037;51.666;7.834;2023-04-08T03:22:24;1.37;;;1.37;;
15876;SDS011;8037;51.666;7.834;2023-04-08T03:24:50;2.37;;;2.27;;
15876;SDS011;8037;51.666;7.834;2023-04-08T03:27:16;2.07;;;1.97;;
15876;SDS011;8037;51.666;7.834;2023-04-08T03:29:42;3.07;;;2.87;;
15876;SDS011;8037;51.666;7.834;2023-04-08T03:32:10;2.77;;;2.60;;
15876;SDS011;8037;51.666;7.834;2023-04-08T03:34:36;2.73;;;2.53;;
15876;SDS011;8037;51.666;7.834;2023-04-08T03:37:02;2.10;;;2.00;;
15876;SDS011;8037;51.666;7.834;2023-04-08T03:39:28;3.70;;;3.40;;
15876;SDS011;8037;51.666;7.834;2023-04-08T03:41:54;4.77;;;3.90;;
15876;SDS011;8037;51.666;7.834;2023-04-08T03:44:21;2.73;;;2.53;;
15876;SDS011;8037;51.666;7.834;2023-04-08T03:46:46;2.83;;;2.70;;
15876;SDS011;8037;51.666;7.834;2023-04-08T03:49:12;2.70;;;2.50;;
15876;SDS011;8037;51.666;7.834;2023-04-08T03:51:38;3.33;;;3.10;;
15876;SDS011;8037;51.666;7.834;2023-04-08T03:54:04;3.23;;;2.93;;
15876;SDS011;8037;51.666;7.834;2023-04-08T03:56:31;3.03;;;2.80;;
15876;SDS011;8037;51.666;7.834;2023-04-08T03:58:57;3.40;;;3.10;;
15876;SDS011;8037;51.666;7.834;2023-04-08T04:01:23;2.73;;;2.60;;
15876;SDS011;8037;51.666;7.834;2023-04-08T04:03:49;3.30;;;3.10;;
15876;SDS011;8037;51.666;7.834;2023-04-08T04:06:15;7.50;;;3.43;;
15876;SDS011;8037;51.666;7.834;2023-04-08T04:08:41;3.40;;;3.17;;
15876;SDS011;8037;51.666;7.834;2023-04-08T04:11:07;2.53;;;2.33;;
15876;SDS011;8037;51.666;7.834;2023-04-08T04:13:33;3.53;;;3.23;;
15876;SDS011;8037;51.666;7.834;2023-04-08T04:15:59;3.70;;;3.40;;
15876;SDS011;8037;51.666;7.834;2023-04-08T04:18:25;3.60;;;3.30;;
15876;SDS011;8037;51.666;7.834;2023-04-08T04:20:51;2.97;;;2.77;;
15876;SDS011;8037;51.666;7.834;2023-04-08T04:23:16;3.43;;;3.23;;
15876;SDS011;8037;51.666;7.834;2023-04-08T04:25:42;3.30;;;3.00;;
15876;SDS011;8037;51.666;7.834;2023-04-08T04:28:08;3.77;;;3.30;;
15876;SDS011;8037;51.666;7.834;2023-04-08T04:30:37;3.70;;;3.40;;
15876;SDS011;8037;51.666;7.834;2023-04-08T04:33:04;5.80;;;3.70;;
15876;SDS011;8037;51.666;7.834;2023-04-08T04:35:30;3.80;;;3.50;;
15876;SDS011;8037;51.666;7.834;2023-04-08T04:37:56;3.17;;;2.97;;
15876;SDS011;8037;51.666;7.834;2023-04-08T04:40:22;4.47;;;3.33;;
15876;SDS011;8037;51.666;7.834;2023-04-08T04:42:47;3.30;;;3.00;;
15876;SDS011;8037;51.666;7.834;2023-04-08T04:45:13;3.40;;;3.20;;
15876;SDS011;8037;51.666;7.834;2023-04-08T04:47:39;3.47;;;3.17;;
15876;SDS011;8037;51.666;7.834;2023-04-08T04:50:05;3.47;;;3.27;;
15876;SDS011;8037;51.666;7.834;2023-04-08T04:52:32;7.60;;;3.10;;
15876;SDS011;8037;51.666;7.834;2023-04-08T04:54:58;3.83;;;3.53;;
15876;SDS011;8037;51.666;7.834;2023-04-08T04:57:23;3.20;;;2.90;;
15876;SDS011;8037;51.666;7.834;2023-04-08T04:59:50;2.60;;;2.37;;
15876;SDS011;8037;51.666;7.834;2023-04-08T05:02:16;4.20;;;3.07;;
15876;SDS011;8037;51.666;7.834;2023-04-08T05:04:42;3.43;;;3.10;;
15876;SDS011;8037;51.666;7.834;2023-04-08T05:07:07;5.03;;;3.10;;
15876;SDS011;8037;51.666;7.834;2023-04-08T05:09:33;3.40;;;3.20;;
15876;SDS011;8037;51.666;7.834;2023-04-08T05:11:59;2.23;;;2.13;;
15876;SDS011;8037;51.666;7.834;2023-04-08T05:14:27;3.37;;;3.17;;
15876;SDS011;8037;51.666;7.834;2023-04-08T05:16:54;3.70;;;3.37;;
15876;SDS011;8037;51.666;7.834;2023-04-08T05:19:20;3.60;;;3.40;;
15876;SDS011;8037;51.666;7.834;2023-04-08T05:21:46;3.57;;;3.37;;
15876;SDS011;8037;51.666;7.834;2023-04-08T05:24:12;3.47;;;2.90;;
15876;SDS011;8037;51.666;7.834;2023-04-08T05:26:38;4.00;;;3.60;;
15876;SDS011;8037;51.666;7.834;2023-04-08T05:29:04;4.70;;;3.33;;
15876;SDS011;8037;51.666;7.834;2023-04-08T05:31:30;3.47;;;3.23;;
15876;SDS011;8037;51.666;7.834;2023-04-08T05:33:56;3.70;;;3.33;;
15876;SDS011;8037;51.666;7.834;2023-04-08T05:36:22;3.83;;;3.63;;
15876;SDS011;8037;51.666;7.834;2023-04-08T05:38:48;3.40;;;3.20;;
15876;SDS011;8037;51.666;7.834;2023-04-08T05:41:14;4.17;;;3.53;;
15876;SDS011;8037;51.666;7.834;2023-04-08T05:43:40;5.00;;;3.93;;
15876;SDS011;8037;51.666;7.834;2023-04-08T05:46:07;5.53;;;3.60;;
15876;SDS011;8037;51.666;7.834;2023-04-08T05:48:33;5.33;;;4.43;;
15876;SDS011;8037;51.666;7.834;2023-04-08T05:50:59;4.67;;;4.27;;
15876;SDS011;8037;51.666;7.834;2023-04-08T05:53:25;7.70;;;5.13;;
15876;SDS011;8037;51.666;7.834;2023-04-08T05:55:51;4.70;;;4.37;;
15876;SDS011;8037;51.666;7.834;2023-04-08T05:58:17;4.83;;;4.07;;
15876;SDS011;8037;51.666;7.834;2023-04-08T06:00:43;6.30;;;5.80;;
15876;SDS011;8037;51.666;7.834;2023-04-08T06:03:09;5.97;;;5.37;;
15876;SDS011;8037;51.666;7.834;2023-04-08T06:05:35;5.10;;;4.60;;
15876;SDS011;8037;51.666;7.834;2023-04-08T06:08:01;4.77;;;4.27;;
15876;SDS011;8037;51.666;7.834;2023-04-08T06:10:27;4.93;;;4.47;;
15876;SDS011;8037;51.666;7.834;2023-04-08T06:12:53;5.13;;;4.70;;
15876;SDS011;8037;51.666;7.834;2023-04-08T06:15:19;7.03;;;4.83;;
15876;SDS011;8037;51.666;7.834;2023-04-08T06:17:45;4.20;;;3.80;;
15876;SDS011;8037;51.666;7.834;2023-04-08T06:20:11;5.87;;;5.33;;
15876;SDS011;8037;51.666;7.834;2023-04-08T06:22:37;6.73;;;6.03;;
15876;SDS011;8037;51.666;7.834;2023-04-08T06:25:03;6.70;;;5.00;;
15876;SDS011;8037;51.666;7.834;2023-04-08T06:27:29;4.13;;;3.77;;
15876;SDS011;8037;51.666;7.834;2023-04-08T06:29:55;5.63;;;4.50;;
15876;SDS011;8037;51.666;7.834;2023-04-08T06:32:21;6.90;;;4.83;;
15876;SDS011;8037;51.666;7.834;2023-04-08T06:34:47;5.93;;;4.13;;
15876;SDS011;8037;51.666;7.834;2023-04-08T06:37:13;5.77;;;5.27;;
15876;SDS011;8037;51.666;7.834;2023-04-08T06:39:39;6.37;;;4.73;;
15876;SDS011;8037;51.666;7.834;2023-04-08T06:42:05;7.30;;;4.80;;
15876;SDS011;8037;51.666;7.834;2023-04-08T06:44:31;5.00;;;4.50;;
15876;SDS011;8037;51.666;7.834;2023-04-08T06:46:57;4.67;;;4.23;;
15876;SDS011;8037;51.666;7.834;2023-04-08T06:49:23;6.03;;;4.90;;
15876;SDS011;8037;51.666;7.834;2023-04-08T06:51:50;8.53;;;4.53;;
15876;SDS011;8037;51.666;7.834;2023-04-08T06:54:16;5.17;;;4.67;;
15876;SDS011;8037;51.666;7.834;2023-04-08T06:56:42;4.93;;;4.33;;
15876;SDS011;8037;51.666;7.834;2023-04-08T06:59:08;3.77;;;3.43;;
15876;SDS011;8037;51.666;7.834;2023-04-08T07:01:34;7.60;;;5.17;;
15876;SDS011;8037;51.666;7.834;2023-04-08T07:04:00;4.77;;;3.43;;
15876;SDS011;8037;51.666;7.834;2023-04-08T07:06:26;4.80;;;4.30;;
15876;SDS011;8037;51.666;7.834;2023-04-08T07:08:52;4.13;;;3.73;;
15876;SDS011;8037;51.666;7.834;2023-04-08T07:11:18;5.47;;;4.00;;
15876;SDS011;8037;51.666;7.834;2023-04-08T07:13:45;12.10;;;4.53;;
15876;SDS011;8037;51.666;7.834;2023-04-08T07:16:11;4.37;;;4.07;;
15876;SDS011;8037;51.666;7.834;2023-04-08T07:18:37;5.03;;;4.33;;
15876;SDS011;8037;51.666;7.834;2023-04-08T07:21:03;3.60;;;3.40;;
15876;SDS011;8037;51.666;7.834;2023-04-08T07:23:29;6.03;;;4.43;;
15876;SDS011;8037;51.666;7.834;2023-04-08T07:25:55;4.63;;;4.33;;
15876;SDS011;8037;51.666;7.834;2023-04-08T07:28:27;7.63;;;4.90;;
15876;SDS011;8037;51.666;7.834;2023-04-08T07:30:53;4.53;;;4.23;;
15876;SDS011;8037;51.666;7.834;2023-04-08T07:33:19;8.40;;;4.83;;
15876;SDS011;8037;51.666;7.834;2023-04-08T07:35:45;6.30;;;4.67;;
15876;SDS011;8037;51.666;7.834;2023-04-08T07:38:11;9.80;;;4.80;;
15876;SDS011;8037;51.666;7.834;2023-04-08T07:40:37;4.90;;;4.00;;
15876;SDS011;8037;51.666;7.834;2023-04-08T07:43:03;4.43;;;3.80;;
15876;SDS011;8037;51.666;7.834;2023-04-08T07:45:29;4.17;;;3.87;;
15876;SDS011;8037;51.666;7.834;2023-04-08T07:47:55;5.50;;;4.93;;
15876;SDS011;8037;51.666;7.834;2023-04-08T07:50:20;3.70;;;3.40;;
15876;SDS011;8037;51.666;7.834;2023-04-08T07:52:46;4.87;;;4.40;;
15876;SDS011;8037;51.666;7.834;2023-04-08T07:55:12;5.57;;;5.00;;
15876;SDS011;8037;51.666;7.834;2023-04-08T07:57:37;6.40;;;3.67;;
15876;SDS011;8037;51.666;7.834;2023-04-08T08:00:04;5.87;;;3.77;;
15876;SDS011;8037;51.666;7.834;2023-04-08T08:02:30;4.83;;;4.00;;
15876;SDS011;8037;51.666;7.834;2023-04-08T08:04:56;5.40;;;3.73;;
15876;SDS011;8037;51.666;7.834;2023-04-08T08:07:22;7.60;;;4.33;;
15876;SDS011;8037;51.666;7.834;2023-04-08T08:09:48;3.13;;;2.93;;
15876;SDS011;8037;51.666;7.834;2023-04-08T08:12:14;5.83;;;4.60;;
15876;SDS011;8037;51.666;7.834;2023-04-08T08:14:40;5.47;;;4.40;;
15876;SDS011;8037;51.666;7.834;2023-04-08T08:17:06;4.57;;;4.27;;
15876;SDS011;8037;51.666;7.834;2023-04-08T08:19:32;5.77;;;4.63;;
15876;SDS011;8037;51.666;7.834;2023-04-08T08:21:57;6.80;;;4.00;;
15876;SDS011;8037;51.666;7.834;2023-04-08T08:24:23;5.73;;;4.10;;
15876;SDS011;8037;51.666;7.834;2023-04-08T08:26:50;8.03;;;5.17;;
15876;SDS011;8037;51.666;7.834;2023-04-08T08:29:15;4.80;;;4.23;;
15876;SDS011;8037;51.666;7.834;2023-04-08T08:31:41;6.37;;;4.80;;
15876;SDS011;8037;51.666;7.834;2023-04-08T08:34:07;8.30;;;4.47;;
15876;SDS011;8037;51.666;7.834;2023-04-08T08:36:33;5.07;;;4.57;;
15876;SDS011;8037;51.666;7.834;2023-04-08T08:38:59;8.10;;;4.57;;
15876;SDS011;8037;51.666;7.834;2023-04-08T08:41:25;6.67;;;4.70;;
15876;SDS011;8037;51.666;7.834;2023-04-08T08:43:51;4.50;;;3.10;;
15876;SDS011;8037;51.666;7.834;2023-04-08T08:46:18;5.33;;;4.00;;
15876;SDS011;8037;51.666;7.834;2023-04-08T08:48:44;4.30;;;3.90;;
15876;SDS011;8037;51.666;7.834;2023-04-08T08:51:10;7.53;;;4.17;;
15876;SDS011;8037;51.666;7.834;2023-04-08T08:53:37;5.90;;;4.00;;
15876;SDS011;8037;51.666;7.834;2023-04-08T08:56:03;5.57;;;5.07;;
15876;SDS011;8037;51.666;7.834;2023-04-08T08:58:30;8.13;;;3.80;;
15876;SDS011;8037;51.666;7.834;2023-04-08T09:00:56;5.40;;;4.47;;
15876;SDS011;8037;51.666;7.834;2023-04-08T09:03:23;8.43;;;5.90;;
15876;SDS011;8037;51.666;7.834;2023-04-08T09:05:52;12.00;;;4.27;;
15876;SDS011;8037;51.666;7.834;2023-04-08T09:10:50;4.47;;;4.03;;
15876;SDS011;8037;51.666;7.834;2023-04-08T09:13:16;4.30;;;3.90;;
15876;SDS011;8037;51.666;7.834;2023-04-08T09:16:01;5.13;;;3.63;;
15876;SDS011;8037;51.666;7.834;2023-04-08T09:18:28;4.60;;;4.10;;
15876;SDS011;8037;51.666;7.834;2023-04-08T09:20:54;3.80;;;3.50;;
15876;SDS011;8037;51.666;7.834;2023-04-08T09:23:19;4.03;;;3.73;;
15876;SDS011;8037;51.666;7.834;2023-04-08T09:25:45;5.70;;;3.70;;
15876;SDS011;8037;51.666;7.834;2023-04-08T09:28:17;4.13;;;3.73;;
15876;SDS011;8037;51.666;7.834;2023-04-08T09:30:47;3.57;;;3.27;;
15876;SDS011;8037;51.666;7.834;2023-04-08T09:33:12;4.27;;;3.70;;
15876;SDS011;8037;51.666;7.834;2023-04-08T09:35:38;3.27;;;2.97;;
15876;SDS011;8037;51.666;7.834;2023-04-08T09:38:04;3.30;;;2.83;;
15876;SDS011;8037;51.666;7.834;2023-04-08T09:40:32;8.07;;;3.80;;
15876;SDS011;8037;51.666;7.834;2023-04-08T09:43:00;4.90;;;3.90;;
15876;SDS011;8037;51.666;7.834;2023-04-08T09:45:29;3.90;;;3.60;;
15876;SDS011;8037;51.666;7.834;2023-04-08T09:50:26;4.10;;;3.80;;
15876;SDS011;8037;51.666;7.834;2023-04-08T09:52:56;3.97;;;3.40;;
15876;SDS011;8037;51.666;7.834;2023-04-08T09:55:24;4.43;;;4.03;;
15876;SDS011;8037;51.666;7.834;2023-04-08T09:57:58;4.20;;;3.80;;
15876;SDS011;8037;51.666;7.834;2023-04-08T10:00:31;5.57;;;3.60;;
15876;SDS011;8037;51.666;7.834;2023-04-08T10:05:38;4.87;;;4.37;;
15876;SDS011;8037;51.666;7.834;2023-04-08T10:08:05;7.23;;;4.27;;
15876;SDS011;8037;51.666;7.834;2023-04-08T10:10:35;3.97;;;3.50;;
15876;SDS011;8037;51.666;7.834;2023-04-08T10:13:02;4.50;;;4.17;;
15876;SDS011;8037;51.666;7.834;2023-04-08T10:17:56;6.20;;;5.20;;
15876;SDS011;8037;51.666;7.834;2023-04-08T10:20:47;5.23;;;4.73;;
15876;SDS011;8037;51.666;7.834;2023-04-08T10:23:14;4.97;;;4.43;;
15876;SDS011;8037;51.666;7.834;2023-04-08T10:25:43;4.80;;;4.37;;
15876;SDS011;8037;51.666;7.834;2023-04-08T10:30:44;5.50;;;3.50;;
15876;SDS011;8037;51.666;7.834;2023-04-08T10:35:37;10.80;;;6.10;;
15876;SDS011;8037;51.666;7.834;2023-04-08T10:38:06;8.87;;;6.20;;
15876;SDS011;8037;51.666;7.834;2023-04-08T10:40:36;5.80;;;4.93;;
15876;SDS011;8037;51.666;7.834;2023-04-08T10:43:06;6.60;;;5.10;;
15876;SDS011;8037;51.666;7.834;2023-04-08T10:45:33;5.60;;;5.10;;
15876;SDS011;8037;51.666;7.834;2023-04-08T10:48:15;9.07;;;5.60;;
15876;SDS011;8037;51.666;7.834;2023-04-08T10:50:54;6.97;;;5.50;;
15876;SDS011;8037;51.666;7.834;2023-04-08T10:53:24;10.27;;;5.80;;
15876;SDS011;8037;51.666;7.834;2023-04-08T10:55:51;7.73;;;6.83;;
15876;SDS011;8037;51.666;7.834;2023-04-08T10:58:17;10.10;;;7.10;;
15876;SDS011;8037;51.666;7.834;2023-04-08T11:00:43;9.60;;;6.23;;
15876;SDS011;8037;51.666;7.834;2023-04-08T11:03:10;16.53;;;5.23;;
15876;SDS011;8037;51.666;7.834;2023-04-08T11:05:36;7.60;;;6.07;;
15876;SDS011;8037;51.666;7.834;2023-04-08T11:08:03;8.70;;;6.97;;
15876;SDS011;8037;51.666;7.834;2023-04-08T11:10:29;8.23;;;5.47;;
15876;SDS011;8037;51.666;7.834;2023-04-08T11:13:00;6.40;;;5.77;;
15876;SDS011;8037;51.666;7.834;2023-04-08T11:15:28;6.33;;;5.40;;
15876;SDS011;8037;51.666;7.834;2023-04-08T11:17:56;7.67;;;6.33;;
15876;SDS011;8037;51.666;7.834;2023-04-08T11:20:22;8.47;;;5.10;;
15876;SDS011;8037;51.666;7.834;2023-04-08T11:22:49;6.63;;;5.43;;
15876;SDS011;8037;51.666;7.834;2023-04-08T11:25:15;9.63;;;5.20;;
15876;SDS011;8037;51.666;7.834;2023-04-08T11:27:41;5.00;;;4.40;;
15876;SDS011;8037;51.666;7.834;2023-04-08T11:30:09;9.57;;;5.87;;
15876;SDS011;8037;51.666;7.834;2023-04-08T11:32:36;6.00;;;4.43;;
15876;SDS011;8037;51.666;7.834;2023-04-08T11:35:06;5.07;;;4.23;;
15876;SDS011;8037;51.666;7.834;2023-04-08T11:37:40;6.33;;;5.47;;
15876;SDS011;8037;51.666;7.834;2023-04-08T11:40:07;5.77;;;4.83;;
15876;SDS011;8037;51.666;7.834;2023-04-08T11:42:33;5.57;;;4.43;;
15876;SDS011;8037;51.666;7.834;2023-04-08T11:44:59;6.10;;;5.37;;
15876;SDS011;8037;51.666;7.834;2023-04-08T11:47:31;4.90;;;4.47;;
15876;SDS011;8037;51.666;7.834;2023-04-08T11:49:57;6.20;;;4.67;;
15876;SDS011;8037;51.666;7.834;2023-04-08T11:55:28;7.83;;;7.00;;
15876;SDS011;8037;51.666;7.834;2023-04-08T11:57:55;8.00;;;5.60;;
15876;SDS011;8037;51.666;7.834;2023-04-08T12:00:22;6.27;;;5.50;;
15876;SDS011;8037;51.666;7.834;2023-04-08T12:02:49;6.07;;;5.40;;
15876;SDS011;8037;51.666;7.834;2023-04-08T12:05:16;6.20;;;5.60;;
15876;SDS011;8037;51.666;7.834;2023-04-08T12:07:42;5.87;;;5.10;;
15876;SDS011;8037;51.666;7.834;2023-04-08T12:10:09;7.10;;;5.67;;
15876;SDS011;8037;51.666;7.834;2023-04-08T12:12:35;6.97;;;5.70;;
15876;SDS011;8037;51.666;7.834;2023-04-08T12:15:01;6.13;;;5.53;;
15876;SDS011;8037;51.666;7.834;2023-04-08T12:17:27;7.33;;;5.60;;
15876;SDS011;8037;51.666;7.834;2023-04-08T12:19:53;9.43;;;6.07;;
15876;SDS011;8037;51.666;7.834;2023-04-08T12:22:19;8.30;;;5.90;;
15876;SDS011;8037;51.666;7.834;2023-04-08T12:24:45;7.63;;;5.87;;
15876;SDS011;8037;51.666;7.834;2023-04-08T12:27:11;7.00;;;6.27;;
15876;SDS011;8037;51.666;7.834;2023-04-08T12:29:38;8.47;;;6.10;;
15876;SDS011;8037;51.666;7.834;2023-04-08T12:32:04;6.50;;;5.90;;
15876;SDS011;8037;51.666;7.834;2023-04-08T12:34:30;19.00;;;10.40;;
15876;SDS011;8037;51.666;7.834;2023-04-08T12:36:56;14.43;;;9.90;;
15876;SDS011;8037;51.666;7.834;2023-04-08T12:39:22;9.10;;;6.10;;
15876;SDS011;8037;51.666;7.834;2023-04-08T12:41:48;8.50;;;5.30;;
15876;SDS011;8037;51.666;7.834;2023-04-08T12:44:14;12.30;;;6.27;;
15876;SDS011;8037;51.666;7.834;2023-04-08T12:46:40;9.90;;;5.03;;
15876;SDS011;8037;51.666;7.834;2023-04-08T12:49:06;7.10;;;6.13;;
15876;SDS011;8037;51.666;7.834;2023-04-08T12:51:33;6.73;;;5.40;;
15876;SDS011;8037;51.666;7.834;2023-04-08T12:53:59;6.03;;;5.43;;
15876;SDS011;8037;51.666;7.834;2023-04-08T12:56:27;7.07;;;4.80;;
15876;SDS011;8037;51.666;7.834;2023-04-08T12:58:53;19.43;;;5.20;;
15876;SDS011;8037;51.666;7.834;2023-04-08T13:01:22;7.13;;;5.40;;
15876;SDS011;8037;51.666;7.834;2023-04-08T13:03:48;7.00;;;5.30;;
15876;SDS011;8037;51.666;7.834;2023-04-08T13:06:14;7.93;;;6.63;;
15876;SDS011;8037;51.666;7.834;2023-04-08T13:08:40;7.47;;;6.00;;
15876;SDS011;8037;51.666;7.834;2023-04-08T13:11:07;6.47;;;5.73;;
15876;SDS011;8037;51.666;7.834;2023-04-08T13:13:33;9.33;;;5.70;;
15876;SDS011;8037;51.666;7.834;2023-04-08T13:15:59;6.20;;;5.60;;
15876;SDS011;8037;51.666;7.834;2023-04-08T13:18:25;6.37;;;5.80;;
15876;SDS011;8037;51.666;7.834;2023-04-08T13:20:51;7.87;;;5.70;;
15876;SDS011;8037;51.666;7.834;2023-04-08T13:23:18;7.37;;;6.10;;
15876;SDS011;8037;51.666;7.834;2023-04-08T13:25:45;9.93;;;6.60;;
15876;SDS011;8037;51.666;7.834;2023-04-08T13:28:10;8.23;;;5.50;;
15876;SDS011;8037;51.666;7.834;2023-04-08T13:30:36;7.77;;;5.97;;
15876;SDS011;8037;51.666;7.834;2023-04-08T13:33:02;8.37;;;6.03;;
15876;SDS011;8037;51.666;7.834;2023-04-08T13:35:28;7.00;;;5.33;;
15876;SDS011;8037;51.666;7.834;2023-04-08T13:37:54;8.53;;;5.37;;
15876;SDS011;8037;51.666;7.834;2023-04-08T13:40:20;7.77;;;6.07;;
15876;SDS011;8037;51.666;7.834;2023-04-08T13:42:46;6.93;;;5.33;;
15876;SDS011;8037;51.666;7.834;2023-04-08T13:45:12;6.13;;;5.53;;
15876;SDS011;8037;51.666;7.834;2023-04-08T13:47:39;8.00;;;6.57;;
15876;SDS011;8037;51.666;7.834;2023-04-08T13:50:05;10.40;;;7.97;;
15876;SDS011;8037;51.666;7.834;2023-04-08T13:52:31;9.83;;;6.60;;
15876;SDS011;8037;51.666;7.834;2023-04-08T13:54:57;11.63;;;7.97;;
15876;SDS011;8037;51.666;7.834;2023-04-08T13:57:23;11.77;;;7.13;;
15876;SDS011;8037;51.666;7.834;2023-04-08T13:59:49;6.87;;;6.10;;
15876;SDS011;8037;51.666;7.834;2023-04-08T14:02:14;8.30;;;6.83;;
15876;SDS011;8037;51.666;7.834;2023-04-08T14:04:40;11.97;;;6.77;;
15876;SDS011;8037;51.666;7.834;2023-04-08T14:07:09;10.77;;;7.27;;
15876;SDS011;8037;51.666;7.834;2023-04-08T14:09:35;10.20;;;6.03;;
15876;SDS011;8037;51.666;7.834;2023-04-08T14:12:01;12.03;;;7.47;;
15876;SDS011;8037;51.666;7.834;2023-04-08T14:14:27;13.30;;;7.53;;
15876;SDS011;8037;51.666;7.834;2023-04-08T14:16:53;9.53;;;6.73;;
15876;SDS011;8037;51.666;7.834;2023-04-08T14:19:19;8.57;;;6.67;;
15876;SDS011;8037;51.666;7.834;2023-04-08T14:21:45;8.50;;;6.83;;
15876;SDS011;8037;51.666;7.834;2023-04-08T14:24:11;14.60;;;5.50;;
15876;SDS011;8037;51.666;7.834;2023-04-08T14:26:37;8.00;;;5.93;;
15876;SDS011;8037;51.666;7.834;2023-04-08T14:29:04;8.00;;;6.67;;
15876;SDS011;8037;51.666;7.834;2023-04-08T14:31:33;12.90;;;6.10;;
15876;SDS011;8037;51.666;7.834;2023-04-08T14:33:59;6.80;;;6.17;;
15876;SDS011;8037;51.666;7.834;2023-04-08T14:36:25;11.63;;;7.57;;
15876;SDS011;8037;51.666;7.834;2023-04-08T14:38:52;8.33;;;6.70;;
15876;SDS011;8037;51.666;7.834;2023-04-08T14:41:18;8.17;;;6.70;;
15876;SDS011;8037;51.666;7.834;2023-04-08T14:43:45;6.57;;;5.70;;
15876;SDS011;8037;51.666;7.834;2023-04-08T14:46:11;10.50;;;6.50;;
15876;SDS011;8037;51.666;7.834;2023-04-08T14:48:37;9.40;;;6.50;;
15876;SDS011;8037;51.666;7.834;2023-04-08T14:51:03;15.20;;;8.13;;
15876;SDS011;8037;51.666;7.834;2023-04-08T14:53:29;9.83;;;6.60;;
15876;SDS011;8037;51.666;7.834;2023-04-08T14:55:55;6.87;;;6.10;;
15876;SDS011;8037;51.666;7.834;2023-04-08T14:58:21;10.37;;;7.40;;
15876;SDS011;8037;51.666;7.834;2023-04-08T15:00:47;9.13;;;6.33;;
15876;SDS011;8037;51.666;7.834;2023-04-08T15:03:13;9.30;;;7.20;;
15876;SDS011;8037;51.666;7.834;2023-04-08T15:05:39;12.03;;;7.47;;
15876;SDS011;8037;51.666;7.834;2023-04-08T15:08:06;8.43;;;7.30;;
15876;SDS011;8037;51.666;7.834;2023-04-08T15:10:32;12.57;;;7.73;;
15876;SDS011;8037;51.666;7.834;2023-04-08T15:12:58;11.23;;;8.97;;
15876;SDS011;8037;51.666;7.834;2023-04-08T15:15:24;16.40;;;7.97;;
15876;SDS011;8037;51.666;7.834;2023-04-08T15:17:50;17.47;;;7.90;;
15876;SDS011;8037;51.666;7.834;2023-04-08T15:20:16;18.53;;;7.13;;